Time;durP1;ratioP1;P1;durP2;ratioP2;P2;SDS_P1;SDS_P2;PMS_P1;PMS_P2;Temp;Humidity;BMP_temperature;BMP_pressure;BME280_temperature;BME280_humidity;BME280_pressure;Samples;Min_cycle;Max_cycle;Signal;HPM_P1;HPM_P2
2023/07/04 00:00:58;;;;;;;1.87;1.77;;;23.40;34.70;;;;;;4991905;28;20468;-66
2023/07/04 00:03:24;;;;;;;1.80;1.70;;;23.40;34.80;;;;;;4991994;28;20535;-66
2023/07/04 00:05:49;;;;;;;2.73;1.80;;;23.40;34.70;;;;;;4992190;28;20549;-66
2023/07/04 00:08:15;;;;;;;2.50;2.13;;;23.40;34.70;;;;;;4992652;28;20455;-65
2023/07/04 00:10:42;;;;;;;1.60;1.50;;;23.40;34.70;;;;;;4996820;28;20224;-66
2023/07/04 00:13:07;;;;;;;1.87;1.77;;;23.40;34.70;;;;;;4993223;28;20231;-66
2023/07/04 00:15:33;;;;;;;1.93;1.50;;;23.40;34.70;;;;;;4993399;28;20847;-66
2023/07/04 00:17:58;;;;;;;1.70;1.60;;;23.40;34.70;;;;;;4991271;28;20318;-66
2023/07/04 00:20:25;;;;;;;2.07;1.50;;;23.40;34.70;;;;;;4990417;28;20235;-66
2023/07/04 00:22:51;;;;;;;1.73;1.63;;;23.40;34.80;;;;;;4991647;28;20370;-66
2023/07/04 00:25:18;;;;;;;1.60;1.50;;;23.40;34.80;;;;;;4991108;28;20461;-65
2023/07/04 00:27:43;;;;;;;2.17;1.97;;;23.40;34.80;;;;;;4994808;28;20331;-65
2023/07/04 00:30:10;;;;;;;1.67;1.57;;;23.50;34.90;;;;;;4990443;28;20614;-66
2023/07/04 00:32:36;;;;;;;3.43;1.90;;;23.40;34.70;;;;;;4988980;28;20783;-66
2023/07/04 00:35:02;;;;;;;2.60;1.47;;;23.40;34.80;;;;;;4993499;28;20461;-65
2023/07/04 00:37:28;;;;;;;2.40;2.00;;;23.40;34.70;;;;;;4988526;28;20495;-66
2023/07/04 00:39:54;;;;;;;2.20;1.70;;;23.40;34.70;;;;;;4978078;28;20555;-66
2023/07/04 00:42:21;;;;;;;1.80;1.70;;;23.40;34.80;;;;;;4990325;28;20468;-65
2023/07/04 00:44:54;;;;;;;3.77;1.63;;;23.40;34.80;;;;;;4990396;28;20216;-66
2023/07/04 00:47:32;;;;;;;2.00;1.80;;;23.40;34.80;;;;;;4991101;28;20481;-65
2023/07/04 00:50:06;;;;;;;3.07;2.00;;;23.40;34.80;;;;;;4990574;28;20557;-66
2023/07/04 00:52:34;;;;;;;2.43;1.60;;;23.40;34.90;;;;;;4992795;28;20473;-66
2023/07/04 00:55:05;;;;;;;3.40;1.77;;;23.40;34.90;;;;;;4993217;28;20477;-66
2023/07/04 00:57:32;;;;;;;2.80;1.80;;;23.40;34.80;;;;;;4989060;28;21056;-65
2023/07/04 01:00:08;;;;;;;3.30;1.70;;;23.40;34.80;;;;;;4993913;28;20472;-66
2023/07/04 01:02:34;;;;;;;1.70;1.60;;;23.40;34.90;;;;;;4990516;28;20465;-66
2023/07/04 01:05:04;;;;;;;2.60;1.70;;;23.40;34.90;;;;;;4992556;28;20457;-66
2023/07/04 01:07:53;;;;;;;2.70;1.70;;;23.40;34.90;;;;;;4991290;28;20233;-66
2023/07/04 01:10:32;;;;;;;2.50;1.60;;;23.40;34.90;;;;;;4992377;28;20464;-66
2023/07/04 01:12:58;;;;;;;1.83;1.40;;;23.40;34.90;;;;;;4989197;28;20475;-66
2023/07/04 01:15:24;;;;;;;2.53;2.33;;;23.40;34.90;;;;;;4990342;28;21275;-66
2023/07/04 01:17:53;;;;;;;2.30;2.10;;;23.40;34.90;;;;;;4990692;28;20458;-66
2023/07/04 01:20:19;;;;;;;1.80;1.53;;;23.40;34.90;;;;;;4992800;28;20238;-66
2023/07/04 01:22:55;;;;;;;1.77;1.67;;;23.40;34.90;;;;;;4992964;28;20469;-66
2023/07/04 01:25:41;;;;;;;2.43;1.93;;;23.40;34.90;;;;;;4987927;28;20556;-66
2023/07/04 01:28:07;;;;;;;2.23;2.03;;;23.40;34.90;;;;;;4989134;28;20470;-66
2023/07/04 01:30:38;;;;;;;4.80;1.73;;;23.40;34.90;;;;;;4993644;28;20453;-66
2023/07/04 01:33:05;;;;;;;1.90;1.80;;;23.40;34.90;;;;;;4989705;28;20831;-65
2023/07/04 01:35:33;;;;;;;1.80;1.70;;;23.40;34.90;;;;;;4993046;28;20461;-66
2023/07/04 01:37:59;;;;;;;2.60;1.50;;;23.40;34.90;;;;;;4990471;28;20643;-66
2023/07/04 01:40:25;;;;;;;3.20;2.10;;;23.40;34.90;;;;;;4989603;28;20565;-66
2023/07/04 01:42:51;;;;;;;2.13;1.67;;;23.40;34.90;;;;;;4989618;28;20289;-66
2023/07/04 01:45:17;;;;;;;1.53;1.43;;;23.40;34.90;;;;;;4992880;28;22049;-65
2023/07/04 01:47:42;;;;;;;2.47;1.80;;;23.40;35.00;;;;;;4997582;28;20671;-66
2023/07/04 01:50:10;;;;;;;3.20;1.60;;;23.40;35.00;;;;;;4995391;28;20314;-66
2023/07/04 01:52:37;;;;;;;1.93;1.67;;;23.40;34.90;;;;;;4996322;28;20699;-66
2023/07/04 01:55:04;;;;;;;1.80;1.70;;;23.40;34.90;;;;;;4993199;28;20448;-66
2023/07/04 01:57:29;;;;;;;3.70;1.90;;;23.40;34.90;;;;;;4994368;28;20472;-65
2023/07/04 01:59:55;;;;;;;6.33;1.50;;;23.40;35.00;;;;;;4996922;28;20537;-66
2023/07/04 02:02:21;;;;;;;1.90;1.70;;;23.40;35.00;;;;;;4994269;28;20254;-66
2023/07/04 02:04:46;;;;;;;2.00;1.77;;;23.40;35.00;;;;;;4994734;28;20223;-66
2023/07/04 02:07:12;;;;;;;2.50;1.83;;;23.40;35.00;;;;;;4992437;28;20236;-65
2023/07/04 02:09:37;;;;;;;2.27;1.77;;;23.40;35.00;;;;;;4997329;28;20734;-66
2023/07/04 02:12:03;;;;;;;2.53;1.90;;;23.40;35.00;;;;;;4996239;28;20343;-66
2023/07/04 02:14:29;;;;;;;1.53;1.43;;;23.40;35.10;;;;;;4992839;28;20274;-66
2023/07/04 02:16:55;;;;;;;1.90;1.80;;;23.40;35.90;;;;;;4995551;28;20463;-66
2023/07/04 02:19:20;;;;;;;2.00;1.70;;;23.40;35.10;;;;;;4991865;28;20239;-66
2023/07/04 02:21:46;;;;;;;2.93;1.87;;;23.40;35.10;;;;;;4992152;28;20264;-66
2023/07/04 02:24:12;;;;;;;4.00;1.73;;;23.40;35.10;;;;;;4993685;28;20236;-65
2023/07/04 02:26:37;;;;;;;3.50;1.80;;;23.40;35.20;;;;;;4992000;28;20220;-66
2023/07/04 02:29:03;;;;;;;2.67;1.63;;;23.40;35.20;;;;;;4992738;28;20311;-66
2023/07/04 02:31:29;;;;;;;1.80;1.70;;;23.40;35.20;;;;;;4993893;28;20663;-66
2023/07/04 02:33:54;;;;;;;2.20;1.83;;;23.30;36.00;;;;;;4994802;28;20317;-66
2023/07/04 02:36:21;;;;;;;2.00;1.80;;;23.40;35.20;;;;;;4992053;28;20226;-66
2023/07/04 02:38:46;;;;;;;1.97;1.77;;;23.40;35.30;;;;;;4993150;28;20561;-66
2023/07/04 02:41:12;;;;;;;2.33;2.10;;;23.40;35.20;;;;;;4994966;28;20469;-66
2023/07/04 02:43:37;;;;;;;2.57;1.73;;;23.40;35.30;;;;;;4993728;28;20281;-66
2023/07/04 02:46:05;;;;;;;3.20;1.90;;;23.40;35.30;;;;;;4991743;28;20234;-66
2023/07/04 02:48:31;;;;;;;2.93;1.80;;;23.30;35.30;;;;;;4996856;28;20219;-66
2023/07/04 02:50:57;;;;;;;1.97;1.60;;;23.30;35.30;;;;;;4993497;28;20537;-66
2023/07/04 02:53:23;;;;;;;2.70;2.00;;;23.30;35.30;;;;;;4991263;28;20764;-66
2023/07/04 02:55:50;;;;;;;2.10;1.80;;;23.30;35.30;;;;;;4994970;28;20440;-66
2023/07/04 02:58:15;;;;;;;2.10;1.60;;;23.30;35.30;;;;;;4994716;28;20254;-66
2023/07/04 03:00:42;;;;;;;2.63;1.73;;;23.30;35.40;;;;;;4988779;28;20706;-66
2023/07/04 03:03:08;;;;;;;2.13;1.93;;;23.40;35.40;;;;;;4994684;28;20235;-65
2023/07/04 03:05:34;;;;;;;3.77;1.70;;;23.30;35.30;;;;;;4988800;28;20538;-65
2023/07/04 03:08:00;;;;;;;1.93;1.73;;;23.40;35.50;;;;;;4992851;28;20481;-65
2023/07/04 03:10:25;;;;;;;1.77;1.63;;;23.40;35.50;;;;;;4992818;28;20655;-66
2023/07/04 03:12:51;;;;;;;2.83;1.40;;;23.40;35.50;;;;;;4992351;28;21157;-66
2023/07/04 03:15:17;;;;;;;2.10;1.80;;;23.30;35.50;;;;;;4991281;28;20236;-66
2023/07/04 03:17:43;;;;;;;2.73;1.60;;;23.40;35.60;;;;;;4990088;28;20228;-66
2023/07/04 03:20:10;;;;;;;3.00;1.77;;;23.30;35.50;;;;;;4995653;28;20250;-66
2023/07/04 03:22:37;;;;;;;1.97;1.70;;;23.30;35.50;;;;;;4992186;28;20449;-66
2023/07/04 03:25:03;;;;;;;2.70;2.10;;;23.30;35.50;;;;;;4992490;28;20451;-65
2023/07/04 03:27:29;;;;;;;2.60;1.80;;;23.30;35.50;;;;;;4992997;28;20511;-65
2023/07/04 03:29:54;;;;;;;2.03;1.90;;;23.30;35.60;;;;;;4994038;28;20454;-65
2023/07/04 03:32:21;;;;;;;4.07;1.70;;;23.40;35.60;;;;;;4991830;28;20302;-65
2023/07/04 03:34:46;;;;;;;2.73;1.70;;;23.30;35.60;;;;;;4994175;28;20516;-65
2023/07/04 03:37:12;;;;;;;2.33;2.03;;;23.40;35.80;;;;;;4991229;28;20242;-65
2023/07/04 03:39:38;;;;;;;2.73;1.87;;;23.30;35.70;;;;;;4994146;28;20227;-66
2023/07/04 03:42:04;;;;;;;1.57;1.47;;;23.30;35.60;;;;;;4991426;28;20232;-66
2023/07/04 03:44:29;;;;;;;2.10;1.73;;;23.30;35.70;;;;;;4993345;28;20231;-65
2023/07/04 03:46:55;;;;;;;2.47;2.10;;;23.30;35.70;;;;;;4992624;28;20219;-65
2023/07/04 03:49:20;;;;;;;2.50;1.70;;;23.30;35.70;;;;;;4989883;28;20315;-65
2023/07/04 03:51:46;;;;;;;2.97;1.90;;;23.30;35.70;;;;;;4993546;28;20240;-66
2023/07/04 03:54:11;;;;;;;2.90;1.67;;;23.30;35.80;;;;;;4993446;28;20223;-66
2023/07/04 03:56:37;;;;;;;1.90;1.70;;;23.30;35.90;;;;;;4989883;28;20215;-66
2023/07/04 03:59:02;;;;;;;2.37;2.17;;;23.30;35.80;;;;;;4991847;28;20774;-66
2023/07/04 04:01:28;;;;;;;3.10;1.73;;;23.30;35.80;;;;;;4985984;28;20251;-66
2023/07/04 04:03:53;;;;;;;4.43;1.77;;;23.30;35.80;;;;;;4992869;28;20349;-66
2023/07/04 04:06:20;;;;;;;45.07;4.23;;;23.30;35.90;;;;;;4992534;28;20231;-66
2023/07/04 04:08:45;;;;;;;2.30;1.60;;;23.30;35.90;;;;;;4985172;28;20318;-65
2023/07/04 04:11:11;;;;;;;2.90;2.07;;;23.30;35.90;;;;;;4993166;28;20488;-66
2023/07/04 04:13:36;;;;;;;4.73;1.70;;;23.30;35.90;;;;;;4989490;28;20601;-66
2023/07/04 04:16:02;;;;;;;2.70;1.90;;;23.30;36.00;;;;;;4992027;28;22664;-66
2023/07/04 04:18:28;;;;;;;1.60;1.50;;;23.30;36.00;;;;;;4989210;28;20247;-66
2023/07/04 04:20:54;;;;;;;2.40;1.90;;;23.30;36.00;;;;;;4980098;28;21018;-65
2023/07/04 04:23:20;;;;;;;3.73;1.87;;;23.30;36.10;;;;;;4989177;28;20733;-66
2023/07/04 04:25:46;;;;;;;2.90;2.13;;;23.30;36.00;;;;;;4990549;28;20227;-66
2023/07/04 04:28:12;;;;;;;2.83;1.90;;;23.30;36.10;;;;;;4992090;28;20458;-66
2023/07/04 04:30:38;;;;;;;2.13;1.50;;;23.30;36.10;;;;;;4991338;28;20220;-65
2023/07/04 04:33:04;;;;;;;1.90;1.80;;;23.30;36.10;;;;;;4984887;28;21055;-65
2023/07/04 04:35:30;;;;;;;2.23;1.87;;;23.30;36.20;;;;;;4993029;28;20253;-65
2023/07/04 04:37:56;;;;;;;2.23;1.87;;;23.30;36.20;;;;;;4967470;28;20470;-66
2023/07/04 04:40:22;;;;;;;3.00;1.77;;;23.30;36.10;;;;;;4987240;28;20465;-65
2023/07/04 04:42:53;;;;;;;2.03;1.77;;;23.30;36.40;;;;;;4982938;28;20223;-66
2023/07/04 04:45:19;;;;;;;2.80;2.20;;;23.30;36.20;;;;;;4986527;28;21207;-66
2023/07/04 04:47:52;;;;;;;2.27;1.77;;;23.30;36.20;;;;;;4985229;28;20544;-66
2023/07/04 04:50:25;;;;;;;3.00;1.90;;;23.30;36.10;;;;;;4986017;28;20469;-66
2023/07/04 04:52:51;;;;;;;2.33;2.10;;;23.30;36.10;;;;;;4986861;28;20472;-66
2023/07/04 04:55:17;;;;;;;2.50;1.80;;;23.30;36.10;;;;;;4989187;28;20534;-66
2023/07/04 04:57:43;;;;;;;3.57;1.80;;;23.40;36.10;;;;;;4991068;28;20504;-66
2023/07/04 05:00:12;;;;;;;3.00;2.07;;;23.40;36.10;;;;;;4990953;28;20457;-66
2023/07/04 05:02:38;;;;;;;1.77;1.50;;;23.40;36.20;;;;;;4992449;28;20251;-65
2023/07/04 05:05:04;;;;;;;3.83;1.97;;;23.40;36.20;;;;;;4987747;28;20678;-66
2023/07/04 05:07:30;;;;;;;6.37;1.60;;;23.40;36.20;;;;;;4988886;28;20465;-66
2023/07/04 05:09:58;;;;;;;2.17;1.63;;;23.40;36.20;;;;;;4986536;28;20230;-65
2023/07/04 05:12:23;;;;;;;2.90;1.70;;;23.40;36.20;;;;;;4990308;28;20246;-66
2023/07/04 05:14:49;;;;;;;2.30;1.97;;;23.40;36.20;;;;;;4992045;28;20822;-66
2023/07/04 05:17:15;;;;;;;2.60;2.13;;;23.40;36.30;;;;;;4990240;28;20229;-67
2023/07/04 05:19:40;;;;;;;3.47;1.87;;;23.40;36.40;;;;;;4980931;28;20241;-66
2023/07/04 05:22:06;;;;;;;3.27;1.80;;;23.40;36.40;;;;;;4992397;28;20290;-66
2023/07/04 05:24:32;;;;;;;2.80;1.77;;;23.40;36.60;;;;;;4996716;28;20244;-66
2023/07/04 05:26:57;;;;;;;5.37;2.23;;;23.40;36.60;;;;;;4989098;28;20219;-66
2023/07/04 05:29:23;;;;;;;4.67;2.67;;;23.40;36.70;;;;;;4988323;28;20216;-66
2023/07/04 05:31:49;;;;;;;3.20;2.30;;;23.40;36.60;;;;;;4986814;28;20226;-66
2023/07/04 05:34:15;;;;;;;6.40;1.90;;;23.40;36.60;;;;;;4987475;28;20389;-66
2023/07/04 05:36:41;;;;;;;2.10;1.90;;;23.40;36.60;;;;;;4988453;28;20219;-66
2023/07/04 05:39:06;;;;;;;2.00;1.80;;;23.40;36.60;;;;;;4989639;28;20258;-66
2023/07/04 05:41:34;;;;;;;1.87;1.77;;;23.40;36.60;;;;;;4989406;28;20318;-66
2023/07/04 05:44:06;;;;;;;2.60;2.07;;;23.40;36.70;;;;;;4995470;28;20758;-67
2023/07/04 05:46:32;;;;;;;3.00;2.50;;;23.40;36.60;;;;;;4992087;28;20461;-66
2023/07/04 05:48:58;;;;;;;2.70;2.03;;;23.40;36.70;;;;;;4992543;28;20543;-66
2023/07/04 05:51:25;;;;;;;4.10;2.43;;;23.40;36.70;;;;;;4993971;28;20472;-66
2023/07/04 05:53:52;;;;;;;2.53;2.00;;;23.40;36.60;;;;;;4992314;28;20527;-66
2023/07/04 05:56:18;;;;;;;2.80;1.90;;;23.40;36.60;;;;;;4990894;28;20472;-66
2023/07/04 05:58:52;;;;;;;1.93;1.70;;;23.40;36.60;;;;;;4990428;28;20477;-66
2023/07/04 06:01:19;;;;;;;2.57;1.80;;;23.40;36.60;;;;;;4991508;28;20477;-67
2023/07/04 06:03:45;;;;;;;2.63;2.00;;;23.40;36.70;;;;;;4992970;28;20905;-66
2023/07/04 06:06:19;;;;;;;2.60;2.23;;;23.40;36.60;;;;;;4995118;28;20473;-66
2023/07/04 06:08:46;;;;;;;1.50;1.40;;;23.40;36.70;;;;;;4991025;28;20219;-66
2023/07/04 06:11:11;;;;;;;5.40;2.40;;;23.40;36.70;;;;;;4991720;28;20503;-67
2023/07/04 06:13:37;;;;;;;1.77;1.60;;;23.40;36.60;;;;;;4996993;28;20456;-67
2023/07/04 06:16:04;;;;;;;2.40;1.70;;;23.40;36.60;;;;;;4989993;28;20234;-67
2023/07/04 06:18:30;;;;;;;2.20;1.70;;;23.40;36.70;;;;;;4990903;28;20265;-67
2023/07/04 06:21:09;;;;;;;2.80;1.70;;;23.40;36.70;;;;;;4988416;28;21230;-66
2023/07/04 06:23:35;;;;;;;1.67;1.57;;;23.40;36.60;;;;;;4992403;28;20453;-66
2023/07/04 06:26:01;;;;;;;4.73;2.10;;;23.40;36.60;;;;;;4994048;28;21011;-66
2023/07/04 06:28:26;;;;;;;2.90;2.40;;;23.40;36.60;;;;;;4993055;28;20319;-66
2023/07/04 06:30:52;;;;;;;1.80;1.70;;;23.40;36.60;;;;;;4995183;28;20226;-66
2023/07/04 06:33:18;;;;;;;1.70;1.60;;;23.40;36.70;;;;;;4990560;28;20311;-66
2023/07/04 06:35:43;;;;;;;2.87;1.87;;;23.40;36.60;;;;;;4991036;28;20242;-67
2023/07/04 06:38:12;;;;;;;2.80;2.40;;;23.40;36.70;;;;;;4997307;28;20219;-67
2023/07/04 06:40:37;;;;;;;1.80;1.70;;;23.40;36.60;;;;;;4990843;28;20274;-67
2023/07/04 06:43:05;;;;;;;3.30;2.40;;;23.40;36.60;;;;;;4991681;28;20469;-67
2023/07/04 06:45:32;;;;;;;2.00;1.80;;;23.40;36.60;;;;;;4995381;28;20223;-67
2023/07/04 06:47:58;;;;;;;2.60;1.50;;;23.40;36.70;;;;;;4994151;28;20468;-67
2023/07/04 06:50:24;;;;;;;1.90;1.67;;;23.40;36.60;;;;;;4991459;28;20470;-66
2023/07/04 06:52:50;;;;;;;2.00;1.80;;;23.40;36.60;;;;;;4991911;28;21279;-67
2023/07/04 06:55:16;;;;;;;2.23;2.00;;;23.40;36.60;;;;;;4992003;28;20239;-67
2023/07/04 06:57:42;;;;;;;2.27;1.90;;;23.40;36.60;;;;;;4992493;28;20457;-67
2023/07/04 07:00:08;;;;;;;2.60;1.67;;;23.40;36.60;;;;;;4992598;28;20589;-67
2023/07/04 07:02:34;;;;;;;1.60;1.50;;;23.40;36.60;;;;;;4988787;28;20522;-67
2023/07/04 07:04:59;;;;;;;3.00;2.47;;;23.40;36.60;;;;;;4992455;28;20468;-66
2023/07/04 07:07:25;;;;;;;1.70;1.60;;;23.40;36.60;;;;;;4992094;28;20581;-66
2023/07/04 07:09:51;;;;;;;3.10;2.00;;;23.40;36.70;;;;;;4989124;28;20250;-67
2023/07/04 07:12:16;;;;;;;2.53;1.87;;;23.40;36.60;;;;;;4992687;28;20239;-66
2023/07/04 07:14:42;;;;;;;2.60;1.80;;;23.50;36.80;;;;;;4991659;28;20279;-66
2023/07/04 07:17:08;;;;;;;2.30;2.10;;;23.40;36.70;;;;;;4993442;28;20219;-67
2023/07/04 07:19:34;;;;;;;2.20;1.60;;;23.40;36.60;;;;;;4993770;28;20249;-66
2023/07/04 07:22:00;;;;;;;3.40;1.90;;;23.40;36.60;;;;;;4985866;28;20251;-66
2023/07/04 07:24:29;;;;;;;1.90;1.60;;;23.40;36.60;;;;;;4983578;28;20211;-66
2023/07/04 07:26:55;;;;;;;2.10;1.60;;;23.40;36.60;;;;;;4985514;28;20466;-66
2023/07/04 07:29:21;;;;;;;4.53;1.90;;;23.50;36.70;;;;;;4988717;28;20583;-66
2023/07/04 07:31:47;;;;;;;2.43;2.20;;;23.40;36.70;;;;;;4985862;28;20457;-66
2023/07/04 07:34:13;;;;;;;3.63;2.07;;;23.50;36.80;;;;;;4989987;28;20223;-66
2023/07/04 07:36:41;;;;;;;2.90;2.07;;;23.40;36.60;;;;;;4987526;28;20461;-66
2023/07/04 07:39:10;;;;;;;2.17;1.97;;;23.50;36.70;;;;;;4991918;28;20231;-65
2023/07/04 07:41:54;;;;;;;2.13;1.70;;;23.50;36.70;;;;;;4991773;28;20797;-66
2023/07/04 07:44:19;;;;;;;1.47;1.37;;;23.50;36.70;;;;;;4994581;28;20461;-67
2023/07/04 07:46:45;;;;;;;1.80;1.70;;;23.50;36.70;;;;;;4983231;28;20460;-66
2023/07/04 07:49:11;;;;;;;2.00;1.80;;;23.50;36.70;;;;;;4995560;28;20285;-66
2023/07/04 07:51:37;;;;;;;2.20;1.87;;;23.50;36.80;;;;;;4994280;28;20270;-66
2023/07/04 07:54:06;;;;;;;1.73;1.63;;;23.50;36.70;;;;;;4990160;28;20536;-67
2023/07/04 07:56:37;;;;;;;2.00;1.90;;;23.50;37.50;;;;;;4993510;28;20654;-66
2023/07/04 07:59:03;;;;;;;2.10;1.60;;;23.50;36.70;;;;;;4991534;28;20536;-66
2023/07/04 08:01:32;;;;;;;2.80;2.03;;;23.50;36.70;;;;;;4994299;28;20992;-66
2023/07/04 08:03:58;;;;;;;2.73;1.70;;;23.50;36.70;;;;;;4991148;28;20250;-67
2023/07/04 08:06:32;;;;;;;2.10;1.90;;;23.50;36.80;;;;;;4992599;28;20453;-67
2023/07/04 08:09:01;;;;;;;3.83;1.50;;;23.50;36.80;;;;;;4994504;28;20461;-66
2023/07/04 08:11:28;;;;;;;1.77;1.67;;;23.50;36.70;;;;;;4995725;28;20457;-66
2023/07/04 08:13:55;;;;;;;3.00;2.00;;;23.50;36.80;;;;;;4993233;28;20488;-67
2023/07/04 08:16:24;;;;;;;2.13;1.93;;;23.50;36.70;;;;;;4990225;28;21185;-66
2023/07/04 08:18:49;;;;;;;2.00;1.80;;;23.50;36.70;;;;;;4989624;28;20537;-66
2023/07/04 08:21:15;;;;;;;1.70;1.60;;;23.50;36.70;;;;;;4992164;28;22339;-67
2023/07/04 08:23:41;;;;;;;2.27;1.70;;;23.50;36.70;;;;;;4994247;28;20315;-67
2023/07/04 08:26:07;;;;;;;1.80;1.63;;;23.50;36.70;;;;;;4994522;28;20564;-66
2023/07/04 08:28:32;;;;;;;2.03;1.83;;;23.50;36.70;;;;;;4995014;28;20235;-66
2023/07/04 08:31:05;;;;;;;1.70;1.60;;;23.50;36.70;;;;;;4993108;28;20626;-66
2023/07/04 08:33:32;;;;;;;2.37;2.27;;;23.50;36.80;;;;;;4992816;28;20263;-66
2023/07/04 08:36:00;;;;;;;1.87;1.70;;;23.50;36.70;;;;;;4991346;28;20449;-66
2023/07/04 08:38:26;;;;;;;1.93;1.73;;;23.50;36.70;;;;;;4991592;28;20465;-66
2023/07/04 08:40:52;;;;;;;2.50;1.90;;;23.50;36.70;;;;;;4993569;28;20461;-67
2023/07/04 08:43:39;;;;;;;1.60;1.50;;;23.50;36.70;;;;;;4994860;28;20798;-66
2023/07/04 08:46:07;;;;;;;1.83;1.73;;;23.50;36.80;;;;;;4995126;28;20533;-66
2023/07/04 08:48:33;;;;;;;1.80;1.70;;;23.50;36.70;;;;;;4992051;28;20465;-66
2023/07/04 08:51:01;;;;;;;2.20;1.97;;;23.50;36.70;;;;;;4996358;28;20453;-66
2023/07/04 08:53:27;;;;;;;1.97;1.87;;;23.50;36.70;;;;;;4993883;28;20477;-66
2023/07/04 08:56:19;;;;;;;2.50;1.57;;;23.50;36.70;;;;;;4992144;28;20457;-70
2023/07/04 08:58:53;;;;;;;2.33;1.60;;;23.50;36.80;;;;;;4993938;28;20579;-69
2023/07/04 09:01:36;;;;;;;1.73;1.63;;;23.50;36.70;;;;;;4989670;28;20489;-66
2023/07/04 09:04:16;;;;;;;3.00;1.63;;;23.50;36.80;;;;;;4993058;28;21111;-66
2023/07/04 09:06:54;;;;;;;2.23;1.97;;;23.50;36.80;;;;;;4996605;28;20489;-67
2023/07/04 09:10:18;;;;;;;1.80;1.70;;;23.50;36.70;;;;;;4994276;28;20444;-66
2023/07/04 09:12:46;;;;;;;1.80;1.67;;;23.50;36.70;;;;;;4935255;28;20476;-66
2023/07/04 09:15:27;;;;;;;1.70;1.60;;;23.50;36.70;;;;;;4932552;28;20472;-66
2023/07/04 09:18:17;;;;;;;1.83;1.73;;;23.50;36.70;;;;;;4969367;28;20465;-66
2023/07/04 09:21:04;;;;;;;2.30;1.40;;;23.50;36.70;;;;;;4995741;28;20581;-66
2023/07/04 09:23:30;;;;;;;1.50;1.40;;;23.50;36.70;;;;;;4995715;28;20453;-66
2023/07/04 09:25:57;;;;;;;3.83;1.53;;;23.50;36.70;;;;;;4995139;28;20994;-66
2023/07/04 09:28:23;;;;;;;1.40;1.30;;;23.50;36.80;;;;;;4993416;28;20240;-66
2023/07/04 09:30:49;;;;;;;1.63;1.53;;;23.50;36.70;;;;;;4998149;28;20457;-66
2023/07/04 09:33:15;;;;;;;1.90;1.80;;;23.50;36.70;;;;;;4996394;28;20476;-65
2023/07/04 09:35:42;;;;;;;1.60;1.50;;;23.50;36.70;;;;;;4992897;28;20666;-66
2023/07/04 09:38:07;;;;;;;1.70;1.60;;;23.50;36.70;;;;;;4990540;28;20227;-66
2023/07/04 09:40:43;;;;;;;2.00;1.63;;;23.50;36.80;;;;;;4991840;28;21123;-66
2023/07/04 09:43:10;;;;;;;1.73;1.63;;;23.50;36.80;;;;;;4974745;28;20325;-66
2023/07/04 09:45:36;;;;;;;1.70;1.60;;;23.50;36.80;;;;;;4998464;28;20532;-65
2023/07/04 09:48:04;;;;;;;1.80;1.37;;;23.50;36.70;;;;;;4994146;28;20457;-66
2023/07/04 09:50:33;;;;;;;1.50;1.40;;;23.50;36.70;;;;;;4999645;28;21164;-67
2023/07/04 09:53:18;;;;;;;1.70;1.60;;;23.50;36.70;;;;;;4995383;28;21372;-66
2023/07/04 09:55:57;;;;;;;1.80;1.70;;;23.50;36.70;;;;;;4999556;28;20549;-66
2023/07/04 09:58:25;;;;;;;3.77;1.63;;;23.50;36.80;;;;;;4998140;28;20550;-67
2023/07/04 10:01:06;;;;;;;1.57;1.47;;;23.50;36.70;;;;;;4996628;28;20449;-67
2023/07/04 10:03:32;;;;;;;2.00;1.90;;;23.50;36.70;;;;;;4997929;28;20999;-67
2023/07/04 10:05:57;;;;;;;2.33;1.90;;;23.50;36.80;;;;;;4996428;28;20499;-66
2023/07/04 10:08:23;;;;;;;1.60;1.50;;;23.50;36.70;;;;;;4997232;28;20262;-67
2023/07/04 10:10:52;;;;;;;2.03;1.70;;;23.50;36.70;;;;;;5001301;28;20227;-67
2023/07/04 10:13:25;;;;;;;1.83;1.73;;;23.50;36.80;;;;;;4998158;28;20774;-67
2023/07/04 10:15:51;;;;;;;2.97;1.60;;;23.50;36.70;;;;;;4996334;28;20493;-67
2023/07/04 10:18:29;;;;;;;1.67;1.43;;;23.50;36.70;;;;;;4998946;28;20533;-66
2023/07/04 10:20:56;;;;;;;1.70;1.50;;;23.50;36.70;;;;;;4996406;28;20273;-67
2023/07/04 10:23:23;;;;;;;1.70;1.60;;;23.50;36.80;;;;;;4990191;28;20537;-66
2023/07/04 10:25:50;;;;;;;2.33;1.50;;;23.50;36.70;;;;;;4992534;28;20473;-66
2023/07/04 10:28:17;;;;;;;1.67;1.57;;;23.50;36.60;;;;;;4993067;28;20456;-67
2023/07/04 10:30:48;;;;;;;1.67;1.57;;;23.50;36.50;;;;;;4992292;28;20454;-66
2023/07/04 10:33:24;;;;;;;1.50;1.40;;;23.50;36.30;;;;;;4988321;28;20469;-66
2023/07/04 10:35:51;;;;;;;2.23;1.57;;;23.50;36.20;;;;;;4993310;28;20979;-66
2023/07/04 10:38:42;;;;;;;1.93;1.43;;;23.50;36.20;;;;;;4990669;28;20461;-66
2023/07/04 10:41:30;;;;;;;1.47;1.37;;;23.50;36.10;;;;;;4990431;28;20556;-66
2023/07/04 10:44:00;;;;;;;1.57;1.47;;;23.60;36.20;;;;;;4989447;28;20545;-66
2023/07/04 10:46:29;;;;;;;1.70;1.60;;;23.50;36.10;;;;;;4987867;28;20464;-67
2023/07/04 10:49:01;;;;;;;1.60;1.50;;;23.50;36.10;;;;;;4987259;28;20948;-66
2023/07/04 10:51:32;;;;;;;2.00;1.50;;;23.50;36.10;;;;;;4987831;28;20469;-66
2023/07/04 10:53:58;;;;;;;1.70;1.60;;;23.50;36.10;;;;;;4987266;28;20487;-66
2023/07/04 10:56:32;;;;;;;1.90;1.60;;;23.50;36.20;;;;;;4987034;28;20465;-66
2023/07/04 10:59:10;;;;;;;1.80;1.47;;;23.60;36.20;;;;;;4991207;28;20223;-67
2023/07/04 11:01:44;;;;;;;2.53;1.70;;;23.50;36.10;;;;;;4986613;28;20457;-66
2023/07/04 11:04:18;;;;;;;3.57;1.60;;;23.50;36.20;;;;;;4993582;28;20454;-65
2023/07/04 11:06:58;;;;;;;1.50;1.40;;;23.50;36.30;;;;;;4992067;28;21047;-66
2023/07/04 11:09:25;;;;;;;2.03;1.60;;;23.50;36.30;;;;;;4994631;28;20514;-66
2023/07/04 11:11:59;;;;;;;1.60;1.50;;;23.50;36.40;;;;;;4990628;28;20541;-67
2023/07/04 11:14:27;;;;;;;1.70;1.47;;;23.60;36.40;;;;;;4991462;28;20458;-66
2023/07/04 11:16:54;;;;;;;2.50;1.70;;;23.50;36.40;;;;;;4990647;28;20489;-66
2023/07/04 11:19:22;;;;;;;1.63;1.53;;;23.50;36.40;;;;;;4991971;28;20476;-66
2023/07/04 11:22:00;;;;;;;1.80;1.50;;;23.60;36.70;;;;;;4991630;28;20465;-66
2023/07/04 11:24:33;;;;;;;2.10;1.50;;;23.50;36.70;;;;;;4996706;28;20469;-66
2023/07/04 11:27:02;;;;;;;2.80;1.40;;;23.60;36.80;;;;;;4991732;28;20457;-66
2023/07/04 11:29:55;;;;;;;1.57;1.47;;;23.60;36.70;;;;;;4995024;28;20507;-66
2023/07/04 11:32:52;;;;;;;1.60;1.50;;;23.60;36.70;;;;;;4990825;28;20464;-66
2023/07/04 11:35:22;;;;;;;1.67;1.57;;;23.60;36.80;;;;;;4996708;28;20465;-66
2023/07/04 11:38:01;;;;;;;1.43;1.33;;;23.60;36.70;;;;;;4996133;28;20492;-67
2023/07/04 11:40:32;;;;;;;1.80;1.70;;;23.60;36.80;;;;;;4996240;28;20855;-66
2023/07/04 11:43:14;;;;;;;1.60;1.50;;;23.60;36.80;;;;;;4995363;28;20573;-66
2023/07/04 11:45:39;;;;;;;1.33;1.23;;;23.60;36.80;;;;;;4991946;28;20580;-67
2023/07/04 11:48:10;;;;;;;1.77;1.50;;;23.60;36.80;;;;;;4994402;28;20484;-66
2023/07/04 11:50:43;;;;;;;1.80;1.70;;;23.60;36.80;;;;;;4996202;28;20224;-66
2023/07/04 11:53:14;;;;;;;1.77;1.67;;;23.60;36.80;;;;;;4993209;28;20499;-66
2023/07/04 11:55:40;;;;;;;1.53;1.43;;;23.60;36.80;;;;;;4997370;28;20492;-66
2023/07/04 11:58:08;;;;;;;1.63;1.53;;;23.60;36.80;;;;;;4992739;28;20461;-66
2023/07/04 12:00:37;;;;;;;1.60;1.50;;;23.60;36.80;;;;;;4991532;28;20461;-66
2023/07/04 12:03:17;;;;;;;1.90;1.80;;;23.60;36.80;;;;;;4988663;28;20607;-67
2023/07/04 12:05:55;;;;;;;1.50;1.40;;;23.60;36.80;;;;;;4990342;28;20457;-66
2023/07/04 12:08:39;;;;;;;1.67;1.57;;;23.60;36.80;;;;;;4991828;28;20476;-66
2023/07/04 12:11:08;;;;;;;1.83;1.73;;;23.60;36.80;;;;;;4990880;28;20961;-66
2023/07/04 12:13:37;;;;;;;1.67;1.57;;;23.60;36.80;;;;;;4991179;28;20523;-66
2023/07/04 12:16:04;;;;;;;1.87;1.77;;;23.60;36.80;;;;;;4991876;28;20445;-66
2023/07/04 12:18:34;;;;;;;1.73;1.63;;;23.60;36.80;;;;;;4989821;28;20474;-66
2023/07/04 12:21:00;;;;;;;1.80;1.70;;;23.60;36.80;;;;;;4990532;28;20468;-66
2023/07/04 12:23:26;;;;;;;2.57;2.00;;;23.60;36.80;;;;;;4989918;28;21052;-66
2023/07/04 12:25:54;;;;;;;1.50;1.40;;;23.60;36.80;;;;;;4989571;28;20476;-65
2023/07/04 12:28:26;;;;;;;1.60;1.50;;;23.60;36.80;;;;;;4991005;28;20223;-66
2023/07/04 12:30:55;;;;;;;2.20;1.70;;;23.60;36.80;;;;;;4992400;28;20511;-66
2023/07/04 12:33:29;;;;;;;1.80;1.70;;;23.60;36.80;;;;;;4992885;28;20465;-66
2023/07/04 12:36:05;;;;;;;1.67;1.57;;;23.60;36.80;;;;;;4992736;28;20486;-66
2023/07/04 12:38:33;;;;;;;1.50;1.40;;;23.60;36.80;;;;;;4990489;28;20465;-66
2023/07/04 12:41:00;;;;;;;1.80;1.70;;;23.60;36.80;;;;;;4985068;28;20992;-68
2023/07/04 12:43:30;;;;;;;1.60;1.50;;;23.60;36.80;;;;;;4985757;28;20465;-67
2023/07/04 12:46:10;;;;;;;1.87;1.77;;;23.60;36.80;;;;;;4987635;28;20457;-66
2023/07/04 12:48:37;;;;;;;2.00;1.90;;;23.60;36.80;;;;;;4985453;28;20452;-67
2023/07/04 12:51:06;;;;;;;1.70;1.60;;;23.60;36.80;;;;;;4989004;28;20465;-66
2023/07/04 12:53:33;;;;;;;1.70;1.60;;;23.60;36.80;;;;;;4986567;28;21381;-67
2023/07/04 12:55:59;;;;;;;1.63;1.53;;;23.60;36.80;;;;;;4990170;28;20971;-66